Time;durP1;ratioP1;P1;durP2;ratioP2;P2;SDS_P1;SDS_P2;PMS_P1;PMS_P2;Temp;Humidity;BMP_temperature;BMP_pressure;BME280_temperature;BME280_humidity;BME280_pressure;Samples;Min_cycle;Max_cycle;Signal;HPM_P1;HPM_P2
2022/10/12 00:00:35;;;;;;;;;;;;;;;;;;5081581;28;993;-68
2022/10/12 00:03:00;;;;;;;;;;;;;;;;;;5081874;28;1205;-68
2022/10/12 00:05:25;;;;;;;;;;;;;;;;;;5081361;28;858;-68
2022/10/12 00:07:51;;;;;;;;;;;;;;;;;;5081348;28;1898;-68
2022/10/12 00:10:17;;;;;;;;;;;;;;;;;;5081708;28;786;-68
2022/10/12 00:12:42;;;;;;;;;;;;;;;;;;5081402;28;842;-68
2022/10/12 00:15:08;;;;;;;;;;;;;;;;;;5081297;28;1263;-68
2022/10/12 00:17:33;;;;;;;;;;;;;;;;;;5081322;28;973;-68
2022/10/12 00:19:58;;;;;;;;;;;;;;;;;;5081396;28;1051;-68
2022/10/12 00:22:23;;;;;;;;;;;;;;;;;;5081163;28;779;-68
2022/10/12 00:24:48;;;;;;;;;;;;;;;;;;5081506;28;1259;-68
2022/10/12 00:27:13;;;;;;;;;;;;;;;;;;5081159;28;803;-68
2022/10/12 00:29:39;;;;;;;;;;;;;;;;;;5081331;28;1910;-68
2022/10/12 00:32:04;;;;;;;;;;;;;;;;;;5081153;28;783;-68
2022/10/12 00:34:29;;;;;;;;;;;;;;;;;;5081017;28;1254;-68
2022/10/12 00:36:55;;;;;;;;;;;;;;;;;;5062948;28;1277;-69
2022/10/12 00:39:20;;;;;;;;;;;;;;;;;;5081084;28;964;-68
2022/10/12 00:41:45;;;;;;;;;;;;;;;;;;5081095;28;846;-68
2022/10/12 00:44:29;;;;;;;;;;;;;;;;;;5081188;28;1184;-68
2022/10/12 00:46:56;;;;;;;;;;;;;;;;;;5080883;28;1048;-69
2022/10/12 00:49:23;;;;;;;;;;;;;;;;;;5081142;28;1955;-68
2022/10/12 00:51:51;;;;;;;;;;;;;;;;;;5080925;28;865;-68
2022/10/12 00:54:19;;;;;;;;;;;;;;;;;;5081050;28;1267;-68
2022/10/12 00:56:45;;;;;;;;;;;;;;;;;;5080963;28;839;-68
2022/10/12 00:59:13;;;;;;;;;;;;;;;;;;5080897;28;1020;-68
2022/10/12 01:01:38;;;;;;;;;;;;;;;;;;5062852;28;1702;-69
2022/10/12 01:04:05;;;;;;;;;;;;;;;;;;5081160;28;1176;-69
2022/10/12 01:06:30;;;;;;;;;;;;;;;;;;5080812;28;1035;-68
2022/10/12 01:08:55;;;;;;;;;;;;;;;;;;5080848;28;1970;-69
2022/10/12 01:11:21;;;;;;;;;;;;;;;;;;5080720;28;1048;-68
2022/10/12 01:13:46;;;;;;;;;;;;;;;;;;5080584;28;1179;-69
2022/10/12 01:16:11;;;;;;;;;;;;;;;;;;5080292;28;779;-69
2022/10/12 01:18:44;;;;;;;;;;;;;;;;;;5080496;28;870;-69
2022/10/12 01:21:21;;;;;;;;;;;;;;;;;;5080740;28;829;-69
2022/10/12 01:24:04;;;;;;;;;;;;;;;;;;5080750;28;1176;-69
2022/10/12 01:26:48;;;;;;;;;;;;;;;;;;5080387;28;913;-69
2022/10/12 01:29:19;;;;;;;;;;;;;;;;;;5080521;28;1890;-69
2022/10/12 01:31:48;;;;;;;;;;;;;;;;;;5080467;28;814;-69
2022/10/12 01:34:16;;;;;;;;;;;;;;;;;;5080394;28;1160;-69
2022/10/12 01:36:43;;;;;;;;;;;;;;;;;;5080178;28;985;-69
2022/10/12 01:39:14;;;;;;;;;;;;;;;;;;5080466;28;957;-68
2022/10/12 01:41:51;;;;;;;;;;;;;;;;;;5080413;28;1057;-69
2022/10/12 01:44:20;;;;;;;;;;;;;;;;;;5080410;28;1160;-69
2022/10/12 01:46:45;;;;;;;;;;;;;;;;;;5080350;28;799;-69
2022/10/12 01:49:11;;;;;;;;;;;;;;;;;;5080019;28;1956;-69
2022/10/12 01:51:55;;;;;;;;;;;;;;;;;;5081469;28;989;-68
2022/10/12 01:54:26;;;;;;;;;;;;;;;;;;5083594;28;1267;-69
2022/10/12 01:56:54;;;;;;;;;;;;;;;;;;5083666;28;1060;-69
2022/10/12 01:59:26;;;;;;;;;;;;;;;;;;5083494;28;870;-69
2022/10/12 02:01:51;;;;;;;;;;;;;;;;;;5083684;28;890;-69
2022/10/12 02:04:20;;;;;;;;;;;;;;;;;;5083274;28;1243;-69
2022/10/12 02:06:48;;;;;;;;;;;;;;;;;;5083621;28;993;-69
2022/10/12 02:09:15;;;;;;;;;;;;;;;;;;5083169;28;1894;-69
2022/10/12 02:11:43;;;;;;;;;;;;;;;;;;5083563;28;1060;-69
2022/10/12 02:14:13;;;;;;;;;;;;;;;;;;5083398;28;1284;-69
2022/10/12 02:16:44;;;;;;;;;;;;;;;;;;5065107;28;965;-68
2022/10/12 02:19:12;;;;;;;;;;;;;;;;;;5083057;28;989;-69
2022/10/12 02:21:38;;;;;;;;;;;;;;;;;;5083258;28;819;-69
2022/10/12 02:24:05;;;;;;;;;;;;;;;;;;5082938;28;1152;-68
2022/10/12 02:26:32;;;;;;;;;;;;;;;;;;5082889;28;933;-69
2022/10/12 02:28:59;;;;;;;;;;;;;;;;;;5082830;28;1949;-69
2022/10/12 02:31:24;;;;;;;;;;;;;;;;;;5083163;28;878;-69
2022/10/12 02:34:08;;;;;;;;;;;;;;;;;;5082925;28;1148;-69
2022/10/12 02:36:36;;;;;;;;;;;;;;;;;;5082761;28;973;-68
2022/10/12 02:39:06;;;;;;;;;;;;;;;;;;5082790;28;870;-69
2022/10/12 02:41:38;;;;;;;;;;;;;;;;;;5082919;28;1032;-69
2022/10/12 02:44:07;;;;;;;;;;;;;;;;;;5082712;28;1180;-69
2022/10/12 02:46:33;;;;;;;;;;;;;;;;;;5082621;28;799;-69
2022/10/12 02:48:59;;;;;;;;;;;;;;;;;;5082923;28;1898;-69
2022/10/12 02:51:25;;;;;;;;;;;;;;;;;;5082862;28;997;-69
2022/10/12 02:53:51;;;;;;;;;;;;;;;;;;5082677;28;1160;-69
2022/10/12 02:56:16;;;;;;;;;;;;;;;;;;5082539;28;819;-69
2022/10/12 02:58:42;;;;;;;;;;;;;;;;;;5082735;28;1031;-69
2022/10/12 03:01:07;;;;;;;;;;;;;;;;;;5082821;28;806;-69
2022/10/12 03:03:32;;;;;;;;;;;;;;;;;;5081650;28;1196;-69
2022/10/12 03:05:58;;;;;;;;;;;;;;;;;;5082316;28;897;-69
2022/10/12 03:08:23;;;;;;;;;;;;;;;;;;5082716;28;1972;-69
2022/10/12 03:10:48;;;;;;;;;;;;;;;;;;5082470;28;928;-69
2022/10/12 03:13:13;;;;;;;;;;;;;;;;;;5082588;28;1191;-69
2022/10/12 03:15:38;;;;;;;;;;;;;;;;;;5082027;28;1051;-69
2022/10/12 03:18:03;;;;;;;;;;;;;;;;;;5082389;28;933;-69
2022/10/12 03:20:29;;;;;;;;;;;;;;;;;;5080876;28;882;-69
2022/10/12 03:22:54;;;;;;;;;;;;;;;;;;5063201;28;1247;-69
2022/10/12 03:25:19;;;;;;;;;;;;;;;;;;5081976;28;945;-69
2022/10/12 03:27:44;;;;;;;;;;;;;;;;;;5082263;28;1929;-69
2022/10/12 03:30:10;;;;;;;;;;;;;;;;;;5082152;28;790;-69
2022/10/12 03:32:35;;;;;;;;;;;;;;;;;;5082073;28;803;-69
2022/10/12 03:35:00;;;;;;;;;;;;;;;;;;5081859;28;1194;-69
2022/10/12 03:37:26;;;;;;;;;;;;;;;;;;5082217;28;954;-69
2022/10/12 03:39:51;;;;;;;;;;;;;;;;;;5082046;28;857;-69
2022/10/12 03:42:16;;;;;;;;;;;;;;;;;;5081807;28;807;-69
2022/10/12 03:44:41;;;;;;;;;;;;;;;;;;5081766;28;1152;-69
2022/10/12 03:47:06;;;;;;;;;;;;;;;;;;5082165;28;862;-69
2022/10/12 03:49:31;;;;;;;;;;;;;;;;;;5081858;28;1969;-69
2022/10/12 03:51:57;;;;;;;;;;;;;;;;;;5081710;28;972;-69
2022/10/12 03:54:22;;;;;;;;;;;;;;;;;;5081587;28;1258;-69
2022/10/12 03:56:47;;;;;;;;;;;;;;;;;;5082352;28;806;-69
2022/10/12 03:59:12;;;;;;;;;;;;;;;;;;5081872;28;881;-69
2022/10/12 04:01:37;;;;;;;;;;;;;;;;;;5081624;28;905;-69
2022/10/12 04:04:03;;;;;;;;;;;;;;;;;;5081514;28;1334;-69
2022/10/12 04:06:28;;;;;;;;;;;;;;;;;;5081405;28;981;-69
2022/10/12 04:08:53;;;;;;;;;;;;;;;;;;5081488;28;1897;-69
2022/10/12 04:11:19;;;;;;;;;;;;;;;;;;5081506;28;841;-69
2022/10/12 04:13:44;;;;;;;;;;;;;;;;;;5081021;28;1191;-69
2022/10/12 04:16:09;;;;;;;;;;;;;;;;;;5081469;28;1250;-69
2022/10/12 04:18:35;;;;;;;;;;;;;;;;;;5081401;28;874;-69
2022/10/12 04:21:01;;;;;;;;;;;;;;;;;;5081324;28;989;-70
2022/10/12 04:23:26;;;;;;;;;;;;;;;;;;5081798;28;1255;-69
2022/10/12 04:25:51;;;;;;;;;;;;;;;;;;5080982;28;1036;-69
2022/10/12 04:28:17;;;;;;;;;;;;;;;;;;5081052;28;1967;-68
2022/10/12 04:30:43;;;;;;;;;;;;;;;;;;5081284;28;807;-69
2022/10/12 04:33:08;;;;;;;;;;;;;;;;;;5081439;28;1180;-69
2022/10/12 04:35:33;;;;;;;;;;;;;;;;;;5081008;28;981;-69
2022/10/12 04:37:58;;;;;;;;;;;;;;;;;;5081000;28;838;-69
2022/10/12 04:40:23;;;;;;;;;;;;;;;;;;5063133;28;1384;-69
2022/10/12 04:42:49;;;;;;;;;;;;;;;;;;5081029;28;1060;-68
2022/10/12 04:45:14;;;;;;;;;;;;;;;;;;5080754;28;1274;-69
2022/10/12 04:47:39;;;;;;;;;;;;;;;;;;5081102;28;1967;-69
2022/10/12 04:50:06;;;;;;;;;;;;;;;;;;5080998;28;1045;-69
2022/10/12 04:52:31;;;;;;;;;;;;;;;;;;5081185;28;906;-68
2022/10/12 04:54:57;;;;;;;;;;;;;;;;;;5080683;28;1162;-68
2022/10/12 04:57:22;;;;;;;;;;;;;;;;;;5080976;28;992;-69
2022/10/12 04:59:47;;;;;;;;;;;;;;;;;;5080876;28;921;-68
2022/10/12 05:02:12;;;;;;;;;;;;;;;;;;5080699;28;783;-69
2022/10/12 05:04:38;;;;;;;;;;;;;;;;;;5081124;28;1164;-69
2022/10/12 05:07:03;;;;;;;;;;;;;;;;;;5080806;28;1024;-70
2022/10/12 05:09:28;;;;;;;;;;;;;;;;;;5080736;28;1917;-69
2022/10/12 05:11:53;;;;;;;;;;;;;;;;;;5080638;28;882;-70
2022/10/12 05:14:18;;;;;;;;;;;;;;;;;;5080577;28;1251;-69
2022/10/12 05:16:43;;;;;;;;;;;;;;;;;;5080513;28;890;-69
2022/10/12 05:19:09;;;;;;;;;;;;;;;;;;5080564;28;1029;-69
2022/10/12 05:21:34;;;;;;;;;;;;;;;;;;5080564;28;972;-69
2022/10/12 05:23:59;;;;;;;;;;;;;;;;;;5080491;28;1132;-70
2022/10/12 05:26:24;;;;;;;;;;;;;;;;;;5081156;28;877;-69
2022/10/12 05:28:50;;;;;;;;;;;;;;;;;;5084010;28;1914;-69
2022/10/12 05:31:15;;;;;;;;;;;;;;;;;;5084204;28;850;-69
2022/10/12 05:33:40;;;;;;;;;;;;;;;;;;5083864;28;1298;-69
2022/10/12 05:36:05;;;;;;;;;;;;;;;;;;5083475;28;848;-70
2022/10/12 05:38:30;;;;;;;;;;;;;;;;;;5083936;28;992;-69
2022/10/12 05:40:56;;;;;;;;;;;;;;;;;;5083525;28;921;-69
2022/10/12 05:43:21;;;;;;;;;;;;;;;;;;5083830;28;1176;-69
2022/10/12 05:45:46;;;;;;;;;;;;;;;;;;5083512;28;810;-69
2022/10/12 05:48:11;;;;;;;;;;;;;;;;;;5083793;28;1893;-69
2022/10/12 05:50:36;;;;;;;;;;;;;;;;;;5083605;28;1028;-70
2022/10/12 05:53:02;;;;;;;;;;;;;;;;;;5084284;28;1196;-69
2022/10/12 05:55:27;;;;;;;;;;;;;;;;;;5083187;28;1027;-69
2022/10/12 05:57:52;;;;;;;;;;;;;;;;;;5083648;28;862;-69
2022/10/12 06:00:17;;;;;;;;;;;;;;;;;;5083420;28;795;-69
2022/10/12 06:02:42;;;;;;;;;;;;;;;;;;5083512;28;1052;-69
2022/10/12 06:05:08;;;;;;;;;;;;;;;;;;5082925;28;1164;-69
2022/10/12 06:07:33;;;;;;;;;;;;;;;;;;5083662;28;1059;-69
2022/10/12 06:09:59;;;;;;;;;;;;;;;;;;5083221;28;1968;-69
2022/10/12 06:12:25;;;;;;;;;;;;;;;;;;5083133;28;877;-69
2022/10/12 06:14:51;;;;;;;;;;;;;;;;;;5082992;28;1152;-69
2022/10/12 06:17:16;;;;;;;;;;;;;;;;;;5083404;28;992;-69
2022/10/12 06:19:41;;;;;;;;;;;;;;;;;;5083494;28;795;-69
2022/10/12 06:22:06;;;;;;;;;;;;;;;;;;5082996;28;1052;-69
2022/10/12 06:24:31;;;;;;;;;;;;;;;;;;5082916;28;1187;-69
2022/10/12 06:26:56;;;;;;;;;;;;;;;;;;5082893;28;1051;-69
2022/10/12 06:29:22;;;;;;;;;;;;;;;;;;5083298;28;1968;-69
2022/10/12 06:31:48;;;;;;;;;;;;;;;;;;5083161;28;1049;-69
2022/10/12 06:34:13;;;;;;;;;;;;;;;;;;5082935;28;1160;-69
2022/10/12 06:36:38;;;;;;;;;;;;;;;;;;5082568;28;894;-69
2022/10/12 06:39:04;;;;;;;;;;;;;;;;;;5083079;28;850;-69
2022/10/12 06:41:29;;;;;;;;;;;;;;;;;;5082671;28;853;-69
2022/10/12 06:43:54;;;;;;;;;;;;;;;;;;5082827;28;1263;-70
2022/10/12 06:46:19;;;;;;;;;;;;;;;;;;5082388;28;885;-70
2022/10/12 06:48:44;;;;;;;;;;;;;;;;;;5082762;28;1953;-69
2022/10/12 06:51:09;;;;;;;;;;;;;;;;;;5082518;28;810;-69
2022/10/12 06:53:35;;;;;;;;;;;;;;;;;;5096249;22;3635;-65
2022/10/12 06:56:07;;;;;;;;;;;;;;;;;;5080162;28;2038;-65
2022/10/12 06:58:32;;;;;;;;;;;;;;;;;;5082760;28;1051;-65
2022/10/12 07:00:57;;;;;;;;;;;;;;;;;;5082536;28;826;-65
2022/10/12 07:03:22;;;;;;;;;;;;;;;;;;5064596;28;1236;-64
2022/10/12 07:05:47;;;;;;;;;;;;;;;;;;5082198;28;1005;-65
2022/10/12 07:08:12;;;;;;;;;;;;;;;;;;5082478;28;1901;-65
2022/10/12 07:10:38;;;;;;;;;;;;;;;;;;5082480;28;910;-65
2022/10/12 07:13:03;;;;;;;;;;;;;;;;;;5082182;28;882;-65
2022/10/12 07:15:28;;;;;;;;;;;;;;;;;;5082213;28;1207;-65
2022/10/12 07:17:53;;;;;;;;;;;;;;;;;;5082201;28;1029;-65
2022/10/12 07:20:18;;;;;;;;;;;;;;;;;;5082307;28;992;-65
2022/10/12 07:22:44;;;;;;;;;;;;;;;;;;5064393;28;1297;-65
2022/10/12 07:25:09;;;;;;;;;;;;;;;;;;5081957;28;1156;-65
2022/10/12 07:27:34;;;;;;;;;;;;;;;;;;5082180;28;893;-65
2022/10/12 07:30:00;;;;;;;;;;;;;;;;;;5082289;28;1957;-65
2022/10/12 07:32:25;;;;;;;;;;;;;;;;;;5081929;28;972;-65
2022/10/12 07:34:50;;;;;;;;;;;;;;;;;;5081944;28;1155;-65
2022/10/12 07:37:15;;;;;;;;;;;;;;;;;;5081854;28;791;-65
2022/10/12 07:39:41;;;;;;;;;;;;;;;;;;5082080;28;836;-65
2022/10/12 07:42:07;;;;;;;;;;;;;;;;;;5081853;28;818;-65
2022/10/12 07:44:32;;;;;;;;;;;;;;;;;;5081710;28;1227;-65
2022/10/12 07:46:57;;;;;;;;;;;;;;;;;;5081812;28;791;-64
2022/10/12 07:49:22;;;;;;;;;;;;;;;;;;5081025;28;2331;-65
2022/10/12 07:51:47;;;;;;;;;;;;;;;;;;5081641;28;970;-65
2022/10/12 07:54:13;;;;;;;;;;;;;;;;;;5081696;28;1144;-65
2022/10/12 07:56:38;;;;;;;;;;;;;;;;;;5081819;28;854;-65
2022/10/12 07:59:03;;;;;;;;;;;;;;;;;;5081678;28;990;-65
2022/10/12 08:01:29;;;;;;;;;;;;;;;;;;5081707;28;894;-65
2022/10/12 08:03:55;;;;;;;;;;;;;;;;;;5079379;28;1167;-65
2022/10/12 08:06:21;;;;;;;;;;;;;;;;;;5081394;28;1064;-65
2022/10/12 08:08:47;;;;;;;;;;;;;;;;;;5063997;28;1902;-65
2022/10/12 08:11:12;;;;;;;;;;;;;;;;;;5063485;28;899;-65
2022/10/12 08:13:37;;;;;;;;;;;;;;;;;;5081361;28;1196;-65
2022/10/12 08:16:03;;;;;;;;;;;;;;;;;;5081022;28;1114;-65
2022/10/12 08:18:29;;;;;;;;;;;;;;;;;;5081933;28;1013;-64
2022/10/12 08:20:54;;;;;;;;;;;;;;;;;;5081253;28;787;-64
2022/10/12 08:23:19;;;;;;;;;;;;;;;;;;5081290;28;989;-65
2022/10/12 08:25:52;;;;;;;;;;;;;;;;;;5080990;28;1219;-64
2022/10/12 08:28:17;;;;;;;;;;;;;;;;;;5081332;28;1905;-64
2022/10/12 08:30:42;;;;;;;;;;;;;;;;;;5081190;28;810;-65
2022/10/12 08:33:07;;;;;;;;;;;;;;;;;;5081354;28;968;-65
2022/10/12 08:35:32;;;;;;;;;;;;;;;;;;5081021;28;1152;-64
2022/10/12 08:37:58;;;;;;;;;;;;;;;;;;5063224;28;1318;-65
2022/10/12 08:40:29;;;;;;;;;;;;;;;;;;5081234;28;882;-65
2022/10/12 08:42:58;;;;;;;;;;;;;;;;;;5081113;28;1024;-65
2022/10/12 08:45:25;;;;;;;;;;;;;;;;;;5080786;28;1144;-65
2022/10/12 08:47:54;;;;;;;;;;;;;;;;;;5081001;28;1902;-65
2022/10/12 08:50:31;;;;;;;;;;;;;;;;;;5080813;28;953;-65
2022/10/12 08:53:16;;;;;;;;;;;;;;;;;;5080997;28;1040;-64
2022/10/12 08:55:43;;;;;;;;;;;;;;;;;;5080427;28;1167;-65
2022/10/12 08:58:19;;;;;;;;;;;;;;;;;;5081235;28;826;-64
2022/10/12 09:00:47;;;;;;;;;;;;;;;;;;5082086;28;873;-64
2022/10/12 09:03:17;;;;;;;;;;;;;;;;;;5084414;28;941;-65
2022/10/12 09:05:47;;;;;;;;;;;;;;;;;;5083852;28;1183;-64
2022/10/12 09:08:15;;;;;;;;;;;;;;;;;;5084936;28;2014;-64
2022/10/12 09:10:44;;;;;;;;;;;;;;;;;;5084120;28;878;-64
2022/10/12 09:13:13;;;;;;;;;;;;;;;;;;5084066;28;838;-65
2022/10/12 09:15:44;;;;;;;;;;;;;;;;;;5083695;28;1169;-65
2022/10/12 09:18:18;;;;;;;;;;;;;;;;;;5084572;28;857;-65
2022/10/12 09:20:47;;;;;;;;;;;;;;;;;;5083985;28;802;-64
2022/10/12 09:23:16;;;;;;;;;;;;;;;;;;5084391;28;699;-65
2022/10/12 09:25:41;;;;;;;;;;;;;;;;;;5083541;28;1137;-65
2022/10/12 09:28:26;;;;;;;;;;;;;;;;;;5084043;28;1894;-65
2022/10/12 09:31:06;;;;;;;;;;;;;;;;;;5065178;28;1605;-65
2022/10/12 09:33:36;;;;;;;;;;;;;;;;;;5083989;28;1290;-65
2022/10/12 09:36:01;;;;;;;;;;;;;;;;;;5083552;28;831;-65
2022/10/12 09:38:27;;;;;;;;;;;;;;;;;;5084052;28;881;-65
2022/10/12 09:40:52;;;;;;;;;;;;;;;;;;5084000;28;839;-65
2022/10/12 09:43:17;;;;;;;;;;;;;;;;;;5083887;28;897;-65
2022/10/12 09:45:42;;;;;;;;;;;;;;;;;;5083444;28;1207;-65
2022/10/12 09:48:08;;;;;;;;;;;;;;;;;;5083678;28;1890;-65
2022/10/12 09:50:45;;;;;;;;;;;;;;;;;;5065785;28;830;-64
2022/10/12 09:53:11;;;;;;;;;;;;;;;;;;5084026;28;731;-64
2022/10/12 09:55:37;;;;;;;;;;;;;;;;;;5082984;28;1238;-64
2022/10/12 09:58:02;;;;;;;;;;;;;;;;;;5083509;28;989;-64
2022/10/12 10:00:27;;;;;;;;;;;;;;;;;;5083751;28;819;-64
2022/10/12 10:02:53;;;;;;;;;;;;;;;;;;5083507;28;791;-65
2022/10/12 10:05:30;;;;;;;;;;;;;;;;;;5082880;28;1361;-65
2022/10/12 10:08:13;;;;;;;;;;;;;;;;;;5065404;28;1897;-64
2022/10/12 10:10:48;;;;;;;;;;;;;;;;;;5083465;28;1044;-65
2022/10/12 10:13:14;;;;;;;;;;;;;;;;;;5082494;28;940;-64
2022/10/12 10:15:40;;;;;;;;;;;;;;;;;;5082758;28;1176;-64
2022/10/12 10:18:24;;;;;;;;;;;;;;;;;;5083135;28;1268;-65
2022/10/12 10:20:53;;;;;;;;;;;;;;;;;;5083535;28;1052;-64
2022/10/12 10:23:26;;;;;;;;;;;;;;;;;;5083102;28;818;-64
2022/10/12 10:26:01;;;;;;;;;;;;;;;;;;5082805;28;814;-64
2022/10/12 10:28:28;;;;;;;;;;;;;;;;;;5083052;28;1979;-64
2022/10/12 10:30:54;;;;;;;;;;;;;;;;;;5083194;28;861;-64
2022/10/12 10:33:20;;;;;;;;;;;;;;;;;;5082992;28;917;-64
2022/10/12 10:35:53;;;;;;;;;;;;;;;;;;5082835;28;1306;-64
2022/10/12 10:38:18;;;;;;;;;;;;;;;;;;5082922;28;965;-64
2022/10/12 10:40:48;;;;;;;;;;;;;;;;;;5082954;28;1043;-64
2022/10/12 10:43:24;;;;;;;;;;;;;;;;;;5082749;28;989;-64
2022/10/12 10:45:50;;;;;;;;;;;;;;;;;;5082694;28;794;-64
2022/10/12 10:48:20;;;;;;;;;;;;;;;;;;5082789;28;1961;-64
2022/10/12 10:50:52;;;;;;;;;;;;;;;;;;5082820;28;993;-64
2022/10/12 10:53:22;;;;;;;;;;;;;;;;;;5082528;28;822;-64
2022/10/12 10:55:55;;;;;;;;;;;;;;;;;;5063217;28;1404;-64
2022/10/12 10:58:28;;;;;;;;;;;;;;;;;;5081379;28;933;-64
2022/10/12 11:00:56;;;;;;;;;;;;;;;;;;5081478;28;897;-64
2022/10/12 11:03:28;;;;;;;;;;;;;;;;;;5081260;28;870;-64
2022/10/12 11:05:56;;;;;;;;;;;;;;;;;;5081057;28;1060;-64
2022/10/12 11:08:24;;;;;;;;;;;;;;;;;;5081181;28;1906;-64
2022/10/12 11:10:55;;;;;;;;;;;;;;;;;;5081289;28;1075;-64
2022/10/12 11:13:38;;;;;;;;;;;;;;;;;;5080956;28;893;-64
2022/10/12 11:16:13;;;;;;;;;;;;;;;;;;5080773;28;957;-64
2022/10/12 11:18:38;;;;;;;;;;;;;;;;;;5081295;28;849;-64
2022/10/12 11:21:07;;;;;;;;;;;;;;;;;;5081041;28;929;-64
2022/10/12 11:23:32;;;;;;;;;;;;;;;;;;5080101;28;1262;-64
2022/10/12 11:25:57;;;;;;;;;;;;;;;;;;5080034;28;1044;-64
2022/10/12 11:28:25;;;;;;;;;;;;;;;;;;5080669;28;1957;-64
2022/10/12 11:30:52;;;;;;;;;;;;;;;;;;5081042;28;897;-64
2022/10/12 11:33:27;;;;;;;;;;;;;;;;;;5080732;28;885;-64
2022/10/12 11:35:53;;;;;;;;;;;;;;;;;;5080734;28;818;-64
2022/10/12 11:38:18;;;;;;;;;;;;;;;;;;5080985;28;747;-64
2022/10/12 11:40:57;;;;;;;;;;;;;;;;;;5080770;28;862;-64
2022/10/12 11:43:27;;;;;;;;;;;;;;;;;;5080497;28;1176;-64
2022/10/12 11:46:01;;;;;;;;;;;;;;;;;;5057844;28;1351;-65
2022/10/12 11:48:47;;;;;;;;;;;;;;;;;;5058068;28;842;-65
2022/10/12 11:51:12;;;;;;;;;;;;;;;;;;5057583;28;1412;-66
2022/10/12 11:53:57;;;;;;;;;;;;;;;;;;5057546;28;1184;-65
2022/10/12 11:56:24;;;;;;;;;;;;;;;;;;5057431;28;1019;-65
2022/10/12 11:58:52;;;;;;;;;;;;;;;;;;5057705;28;997;-65
2022/10/12 12:01:24;;;;;;;;;;;;;;;;;;5057599;28;1117;-65
2022/10/12 12:04:07;;;;;;;;;;;;;;;;;;5057387;28;1914;-65
2022/10/12 12:06:32;;;;;;;;;;;;;;;;;;5057382;28;1016;-65
2022/10/12 12:09:05;;;;;;;;;;;;;;;;;;5057538;28;957;-65
2022/10/12 12:11:31;;;;;;;;;;;;;;;;;;5057625;28;993;-65
2022/10/12 12:14:16;;;;;;;;;;;;;;;;;;5057306;28;1188;-65
2022/10/12 12:16:41;;;;;;;;;;;;;;;;;;5057311;28;826;-65
2022/10/12 12:19:12;;;;;;;;;;;;;;;;;;5057415;28;964;-65
2022/10/12 12:21:56;;;;;;;;;;;;;;;;;;5057629;28;802;-66
2022/10/12 12:24:21;;;;;;;;;;;;;;;;;;5056694;28;1894;-65
2022/10/12 12:26:47;;;;;;;;;;;;;;;;;;5055266;28;831;-65
2022/10/12 12:29:20;;;;;;;;;;;;;;;;;;5057319;28;842;-65
2022/10/12 12:31:55;;;;;;;;;;;;;;;;;;5055904;28;1428;-65
2022/10/12 12:34:20;;;;;;;;;;;;;;;;;;5055801;28;1235;-65
2022/10/12 12:36:46;;;;;;;;;;;;;;;;;;5056715;28;882;-65
2022/10/12 12:39:23;;;;;;;;;;;;;;;;;;5057263;28;877;-65
2022/10/12 12:41:54;;;;;;;;;;;;;;;;;;5056971;28;874;-65
2022/10/12 12:44:45;;;;;;;;;;;;;;;;;;5056761;28;1941;-65
2022/10/12 12:47:11;;;;;;;;;;;;;;;;;;5052373;28;1690;-65
2022/10/12 12:49:36;;;;;;;;;;;;;;;;;;5057068;28;904;-65
2022/10/12 12:52:01;;;;;;;;;;;;;;;;;;5056662;28;847;-66
2022/10/12 12:54:27;;;;;;;;;;;;;;;;;;5070565;22;3695;-67
2022/10/12 12:57:04;;;;;;;;;;;;;;;;;;5066017;28;833;-67
2022/10/12 12:59:48;;;;;;;;;;;;;;;;;;5063617;28;866;-70
2022/10/12 13:02:33;;;;;;;;;;;;;;;;;;5063282;28;1036;-70
2022/10/12 13:05:17;;;;;;;;;;;;;;;;;;5062803;28;1913;-70
2022/10/12 13:07:42;;;;;;;;;;;;;;;;;;5063339;28;953;-70
2022/10/12 13:10:31;;;;;;;;;;;;;;;;;;5063306;28;984;-70
2022/10/12 13:13:02;;;;;;;;;;;;;;;;;;5054796;28;1172;-70
2022/10/12 13:15:50;;;;;;;;;;;;;;;;;;5062976;28;1203;-70
2022/10/12 13:18:34;;;;;;;;;;;;;;;;;;5063212;28;846;-70
2022/10/12 13:20:59;;;;;;;;;;;;;;;;;;5063250;28;957;-70
2022/10/12 13:23:25;;;;;;;;;;;;;;;;;;5063032;28;1044;-70
2022/10/12 13:25:56;;;;;;;;;;;;;;;;;;5062553;28;1902;-70
2022/10/12 13:28:24;;;;;;;;;;;;;;;;;;5062995;28;861;-70
2022/10/12 13:30:54;;;;;;;;;;;;;;;;;;5062893;28;1035;-69
2022/10/12 13:33:24;;;;;;;;;;;;;;;;;;5061716;28;926;-70
2022/10/12 13:35:49;;;;;;;;;;;;;;;;;;5062517;28;1187;-69
2022/10/12 13:38:14;;;;;;;;;;;;;;;;;;5062762;28;1111;-70
2022/10/12 13:40:41;;;;;;;;;;;;;;;;;;5062853;28;1029;-70
2022/10/12 13:43:36;;;;;;;;;;;;;;;;;;5062924;28;745;-69
2022/10/12 13:46:01;;;;;;;;;;;;;;;;;;5048974;28;1202;-70
2022/10/12 13:48:27;;;;;;;;;;;;;;;;;;5062673;28;853;-70
2022/10/12 13:50:57;;;;;;;;;;;;;;;;;;5062836;28;717;-70
2022/10/12 13:53:22;;;;;;;;;;;;;;;;;;5061223;28;1265;-69
2022/10/12 13:56:07;;;;;;;;;;;;;;;;;;5062044;28;1256;-69
2022/10/12 13:58:34;;;;;;;;;;;;;;;;;;5062532;28;993;-70
2022/10/12 14:00:59;;;;;;;;;;;;;;;;;;5062488;28;893;-70
2022/10/12 14:03:25;;;;;;;;;;;;;;;;;;5062462;28;945;-69
2022/10/12 14:05:52;;;;;;;;;;;;;;;;;;5062284;28;1906;-69
2022/10/12 14:08:20;;;;;;;;;;;;;;;;;;5061309;28;900;-70
2022/10/12 14:10:45;;;;;;;;;;;;;;;;;;5062389;28;866;-69
2022/10/12 14:13:14;;;;;;;;;;;;;;;;;;5062276;28;1000;-70
2022/10/12 14:15:39;;;;;;;;;;;;;;;;;;5061736;28;1156;-69
2022/10/12 14:18:23;;;;;;;;;;;;;;;;;;5062429;28;964;-69
2022/10/12 14:20:49;;;;;;;;;;;;;;;;;;5062474;28;846;-69
2022/10/12 14:23:19;;;;;;;;;;;;;;;;;;5062384;28;889;-69
2022/10/12 14:25:52;;;;;;;;;;;;;;;;;;5061559;28;1959;-68
2022/10/12 14:28:38;;;;;;;;;;;;;;;;;;5062173;28;857;-69
2022/10/12 14:31:03;;;;;;;;;;;;;;;;;;5061678;28;1288;-69
2022/10/12 14:33:29;;;;;;;;;;;;;;;;;;5062125;28;861;-69
2022/10/12 14:36:21;;;;;;;;;;;;;;;;;;5061553;28;1216;-68
2022/10/12 14:38:47;;;;;;;;;;;;;;;;;;5062126;28;795;-69
2022/10/12 14:41:27;;;;;;;;;;;;;;;;;;5061948;28;921;-69
2022/10/12 14:44:22;;;;;;;;;;;;;;;;;;5061766;28;1988;-69
2022/10/12 14:47:01;;;;;;;;;;;;;;;;;;5048514;28;1239;-69
2022/10/12 14:49:40;;;;;;;;;;;;;;;;;;5061717;28;845;-69
2022/10/12 14:52:06;;;;;;;;;;;;;;;;;;5061624;28;834;-69
2022/10/12 14:54:31;;;;;;;;;;;;;;;;;;5061129;28;1156;-69
2022/10/12 14:57:09;;;;;;;;;;;;;;;;;;5061437;28;799;-69
2022/10/12 14:59:34;;;;;;;;;;;;;;;;;;5061544;28;875;-69
2022/10/12 15:01:59;;;;;;;;;;;;;;;;;;5061439;28;810;-69
2022/10/12 15:04:24;;;;;;;;;;;;;;;;;;5061092;28;1897;-69
2022/10/12 15:06:49;;;;;;;;;;;;;;;;;;5061455;28;846;-68
2022/10/12 15:09:15;;;;;;;;;;;;;;;;;;5061421;28;945;-69
2022/10/12 15:11:40;;;;;;;;;;;;;;;;;;5061327;28;787;-69
2022/10/12 15:14:07;;;;;;;;;;;;;;;;;;5061575;28;870;-68
2022/10/12 15:16:33;;;;;;;;;;;;;;;;;;5060952;28;794;-68
2022/10/12 15:18:58;;;;;;;;;;;;;;;;;;5061150;28;799;-68
2022/10/12 15:21:24;;;;;;;;;;;;;;;;;;5061158;28;850;-68
2022/10/12 15:23:49;;;;;;;;;;;;;;;;;;5061356;28;1906;-68
2022/10/12 15:26:16;;;;;;;;;;;;;;;;;;5060733;28;1278;-68
2022/10/12 15:28:42;;;;;;;;;;;;;;;;;;5061311;28;850;-69
2022/10/12 15:31:16;;;;;;;;;;;;;;;;;;5061272;28;846;-68
2022/10/12 15:33:41;;;;;;;;;;;;;;;;;;5061271;28;815;-68
2022/10/12 15:36:07;;;;;;;;;;;;;;;;;;5060689;28;1192;-68
2022/10/12 15:38:32;;;;;;;;;;;;;;;;;;5061081;28;846;-68
2022/10/12 15:40:58;;;;;;;;;;;;;;;;;;5060677;28;949;-68
2022/10/12 15:43:23;;;;;;;;;;;;;;;;;;5061160;28;811;-68
2022/10/12 15:45:48;;;;;;;;;;;;;;;;;;5060406;28;1894;-68
2022/10/12 15:48:14;;;;;;;;;;;;;;;;;;5061089;28;1027;-68
2022/10/12 15:50:43;;;;;;;;;;;;;;;;;;5060782;28;882;-68
2022/10/12 15:53:15;;;;;;;;;;;;;;;;;;5061005;28;1060;-68
2022/10/12 15:55:40;;;;;;;;;;;;;;;;;;5060117;28;1198;-68
2022/10/12 15:58:06;;;;;;;;;;;;;;;;;;5061081;28;784;-68
2022/10/12 16:00:31;;;;;;;;;;;;;;;;;;5060725;28;933;-68
2022/10/12 16:02:57;;;;;;;;;;;;;;;;;;5060867;28;791;-68
2022/10/12 16:05:24;;;;;;;;;;;;;;;;;;5060502;28;1906;-69
2022/10/12 16:07:49;;;;;;;;;;;;;;;;;;5060493;28;1119;-69
2022/10/12 16:10:16;;;;;;;;;;;;;;;;;;5060651;28;905;-68
2022/10/12 16:12:42;;;;;;;;;;;;;;;;;;5060854;28;881;-69
2022/10/12 16:15:07;;;;;;;;;;;;;;;;;;5060343;28;1274;-68
2022/10/12 16:17:33;;;;;;;;;;;;;;;;;;5060486;28;870;-68
2022/10/12 16:19:58;;;;;;;;;;;;;;;;;;5060513;28;849;-69
2022/10/12 16:22:23;;;;;;;;;;;;;;;;;;5060250;28;1036;-69
2022/10/12 16:24:48;;;;;;;;;;;;;;;;;;5060036;28;1897;-68
2022/10/12 16:27:13;;;;;;;;;;;;;;;;;;5060317;28;791;-68
2022/10/12 16:29:38;;;;;;;;;;;;;;;;;;5060539;28;966;-69
2022/10/12 16:32:04;;;;;;;;;;;;;;;;;;5062689;28;894;-69
2022/10/12 16:34:29;;;;;;;;;;;;;;;;;;5063731;28;1176;-68
2022/10/12 16:36:54;;;;;;;;;;;;;;;;;;5063555;28;1111;-68
2022/10/12 16:39:20;;;;;;;;;;;;;;;;;;5063826;28;886;-69
2022/10/12 16:41:45;;;;;;;;;;;;;;;;;;5063207;28;985;-69
2022/10/12 16:44:10;;;;;;;;;;;;;;;;;;5063773;28;1961;-69
2022/10/12 16:46:36;;;;;;;;;;;;;;;;;;5063293;28;1060;-68
2022/10/12 16:49:01;;;;;;;;;;;;;;;;;;5063710;28;850;-69
2022/10/12 16:51:27;;;;;;;;;;;;;;;;;;5063500;28;850;-69
2022/10/12 16:53:52;;;;;;;;;;;;;;;;;;5063575;28;994;-69
2022/10/12 16:56:17;;;;;;;;;;;;;;;;;;5062961;28;1188;-68
2022/10/12 16:58:42;;;;;;;;;;;;;;;;;;5063450;28;879;-68
2022/10/12 17:01:08;;;;;;;;;;;;;;;;;;5063519;28;1048;-69
2022/10/12 17:03:33;;;;;;;;;;;;;;;;;;5063417;28;913;-68
2022/10/12 17:05:59;;;;;;;;;;;;;;;;;;5063092;28;1972;-69
2022/10/12 17:08:24;;;;;;;;;;;;;;;;;;5063073;28;802;-69
2022/10/12 17:10:49;;;;;;;;;;;;;;;;;;5063584;28;834;-69
2022/10/12 17:13:14;;;;;;;;;;;;;;;;;;5063252;28;930;-69
2022/10/12 17:15:40;;;;;;;;;;;;;;;;;;5062910;28;1186;-69
2022/10/12 17:18:05;;;;;;;;;;;;;;;;;;5062985;28;806;-69